createdAt,value
2023-03-08T00:00:29.829Z,2.74
2023-03-08T00:02:58.051Z,2.70
2023-03-08T00:05:26.344Z,2.69
2023-03-08T00:07:54.587Z,2.72
2023-03-08T00:10:22.989Z,2.71
2023-03-08T00:12:50.834Z,2.69
2023-03-08T00:15:20.367Z,2.71
2023-03-08T00:17:48.421Z,2.67
2023-03-08T00:20:16.567Z,2.68
2023-03-08T00:22:44.566Z,2.68
2023-03-08T00:25:16.405Z,2.63
2023-03-08T00:27:44.405Z,2.62
2023-03-08T00:30:13.988Z,2.61
2023-03-08T00:32:43.195Z,2.58
2023-03-08T00:35:13.064Z,2.52
2023-03-08T00:37:40.873Z,2.50
2023-03-08T00:40:10.389Z,2.52
2023-03-08T00:42:38.209Z,2.45
2023-03-08T00:45:06.835Z,2.40
2023-03-08T00:47:35.467Z,2.41
2023-03-08T00:50:04.907Z,2.42
2023-03-08T00:52:32.800Z,2.40
2023-03-08T00:55:00.637Z,2.41
2023-03-08T00:57:28.503Z,2.37
2023-03-08T00:59:56.288Z,2.33
2023-03-08T01:02:24.165Z,2.37
2023-03-08T01:04:51.991Z,2.36
2023-03-08T01:07:24.036Z,2.31
2023-03-08T01:09:55.720Z,2.26
2023-03-08T01:12:25.280Z,2.22
2023-03-08T01:14:54.398Z,2.22
2023-03-08T01:17:22.262Z,2.23
2023-03-08T01:19:50.120Z,2.18
2023-03-08T01:22:19.147Z,2.16
2023-03-08T01:24:49.768Z,2.19
2023-03-08T01:27:18.105Z,2.12
2023-03-08T01:29:46.190Z,2.15
2023-03-08T01:32:14.369Z,2.09
2023-03-08T01:34:42.258Z,2.10
2023-03-08T01:37:10.123Z,2.12
2023-03-08T01:39:37.977Z,2.08
2023-03-08T01:42:07.814Z,2.09
2023-03-08T01:44:51.182Z,2.06
2023-03-08T01:47:21.010Z,2.03
2023-03-08T01:50:12.235Z,1.98
2023-03-08T01:52:46.730Z,1.94
2023-03-08T01:55:17.122Z,2.02
2023-03-08T01:57:50.705Z,1.98
2023-03-08T02:00:22.776Z,1.96
2023-03-08T02:02:55.515Z,1.94
2023-03-08T02:05:24.565Z,1.92
2023-03-08T02:07:57.602Z,1.90
2023-03-08T02:10:29.409Z,1.94
2023-03-08T02:12:58.761Z,1.89
2023-03-08T02:15:26.709Z,1.96
2023-03-08T02:17:58.020Z,1.92
2023-03-08T02:20:29.857Z,1.87
2023-03-08T02:23:08.733Z,1.87
2023-03-08T02:25:36.725Z,1.89
2023-03-08T02:28:05.486Z,1.87
2023-03-08T02:30:36.226Z,1.85
2023-03-08T02:33:05.140Z,1.85
2023-03-08T02:35:33.738Z,1.90
2023-03-08T02:38:02.894Z,1.88
2023-03-08T02:40:32.730Z,1.93
2023-03-08T02:43:00.520Z,1.87
2023-03-08T02:45:28.336Z,1.89
2023-03-08T02:47:56.162Z,1.92
2023-03-08T02:50:24.094Z,1.94
2023-03-08T02:52:52.525Z,1.90
2023-03-08T02:55:22.550Z,1.95
2023-03-08T02:57:50.489Z,1.94
2023-03-08T03:00:20.230Z,1.98
2023-03-08T03:02:48.229Z,1.98
2023-03-08T03:05:16.022Z,1.98
2023-03-08T03:07:44.875Z,1.95
2023-03-08T03:10:19.847Z,1.99
2023-03-08T03:12:49.171Z,2.01
2023-03-08T03:15:20.264Z,2.02
2023-03-08T03:17:52.707Z,2.01
2023-03-08T03:20:20.771Z,2.03
2023-03-08T03:22:48.589Z,1.95
2023-03-08T03:25:17.940Z,1.99
2023-03-08T03:27:47.337Z,2.00
2023-03-08T03:30:17.328Z,1.96
2023-03-08T03:32:45.229Z,2.00
2023-03-08T03:35:14.641Z,2.02
2023-03-08T03:37:42.549Z,1.99
2023-03-08T03:40:14.141Z,2.06
2023-03-08T03:42:44.502Z,2.04
2023-03-08T03:45:15.000Z,2.00
2023-03-08T03:47:44.414Z,2.03
2023-03-08T03:50:13.020Z,2.03
2023-03-08T03:53:03.680Z,2.01
2023-03-08T03:55:32.474Z,2.03
2023-03-08T03:58:03.263Z,2.02
2023-03-08T04:00:32.218Z,2.02
2023-03-08T04:03:13.606Z,2.06
2023-03-08T04:05:42.807Z,2.05
2023-03-08T04:08:14.080Z,2.06
2023-03-08T04:10:43.246Z,2.06
2023-03-08T04:13:12.425Z,2.04
2023-03-08T04:15:41.607Z,2.02
2023-03-08T04:18:14.070Z,2.06
2023-03-08T04:20:46.255Z,2.06
2023-03-08T04:23:15.294Z,2.08
2023-03-08T04:25:45.296Z,2.09
2023-03-08T04:28:16.100Z,2.09
2023-03-08T04:30:46.387Z,2.04
2023-03-08T04:33:16.416Z,2.07
2023-03-08T04:35:48.576Z,2.04
2023-03-08T04:38:19.067Z,2.05
2023-03-08T04:41:05.539Z,2.06
2023-03-08T04:43:47.272Z,2.04
2023-03-08T04:46:17.418Z,1.99
2023-03-08T04:48:47.037Z,2.01
2023-03-08T04:51:17.723Z,2.02
2023-03-08T04:53:47.321Z,2.02
2023-03-08T04:56:17.357Z,2.03
2023-03-08T04:58:46.412Z,2.05
2023-03-08T05:01:18.463Z,2.02
2023-03-08T05:03:49.898Z,2.02
2023-03-08T05:06:20.875Z,2.03
2023-03-08T05:08:49.525Z,2.05
2023-03-08T05:11:20.918Z,2.05
2023-03-08T05:13:48.933Z,2.01
2023-03-08T05:16:16.944Z,2.04
2023-03-08T05:18:44.889Z,2.06
2023-03-08T05:21:17.056Z,2.06
2023-03-08T05:23:47.158Z,2.06
2023-03-08T05:26:19.487Z,2.09
2023-03-08T05:28:48.778Z,2.08
2023-03-08T05:31:20.321Z,2.11
2023-03-08T05:33:51.185Z,2.09
2023-03-08T05:36:26.764Z,2.13
2023-03-08T05:38:57.825Z,2.17
2023-03-08T05:41:32.571Z,2.20
2023-03-08T05:44:02.115Z,2.22
2023-03-08T05:46:34.100Z,2.22
2023-03-08T05:49:03.871Z,2.30
2023-03-08T05:51:35.876Z,2.25
2023-03-08T05:54:04.125Z,2.29
2023-03-08T05:56:35.146Z,2.28
2023-03-08T05:59:12.167Z,2.31
2023-03-08T06:01:40.261Z,2.31
2023-03-08T06:04:18.363Z,2.34
2023-03-08T06:06:51.115Z,2.35
2023-03-08T06:09:21.979Z,2.33
2023-03-08T06:11:50.085Z,2.33
2023-03-08T06:14:19.513Z,2.38
2023-03-08T06:16:48.554Z,2.35
2023-03-08T06:19:18.059Z,2.41
2023-03-08T06:21:47.729Z,2.40
2023-03-08T06:24:17.090Z,2.40
2023-03-08T06:26:45.520Z,2.43
2023-03-08T06:29:13.423Z,2.44
2023-03-08T06:31:41.428Z,2.46
2023-03-08T06:34:09.358Z,2.52
2023-03-08T06:36:37.798Z,2.53
2023-03-08T06:39:07.114Z,2.54
2023-03-08T06:41:36.842Z,2.58
2023-03-08T06:44:06.882Z,2.57
2023-03-08T06:46:34.704Z,2.61
2023-03-08T06:49:03.290Z,2.67
2023-03-08T06:51:32.864Z,2.71
2023-03-08T06:54:00.745Z,2.77
2023-03-08T06:56:29.407Z,2.79
2023-03-08T06:58:58.599Z,2.80
2023-03-08T07:01:26.452Z,2.83
2023-03-08T07:03:54.430Z,2.85
2023-03-08T07:06:22.309Z,2.85
2023-03-08T07:08:50.181Z,2.91
2023-03-08T07:11:18.050Z,2.90
2023-03-08T07:13:46.357Z,2.89
2023-03-08T07:16:15.781Z,2.91
2023-03-08T07:18:43.610Z,2.95
2023-03-08T07:21:12.211Z,2.95
2023-03-08T07:23:40.064Z,2.96
2023-03-08T07:26:08.746Z,3.00
2023-03-08T07:28:36.993Z,2.98
2023-03-08T07:31:05.675Z,3.02
2023-03-08T07:33:35.025Z,3.02
2023-03-08T07:36:03.118Z,3.04
2023-03-08T07:38:31.234Z,3.05
2023-03-08T07:40:59.318Z,3.05
2023-03-08T07:43:29.023Z,3.05
2023-03-08T07:46:06.073Z,3.06
2023-03-08T07:48:35.301Z,2.98
2023-03-08T07:51:06.456Z,3.04
2023-03-08T07:53:35.088Z,3.07
2023-03-08T07:56:03.224Z,3.02
2023-03-08T07:58:31.475Z,3.11
2023-03-08T08:00:59.354Z,3.08
2023-03-08T08:03:27.300Z,3.14
2023-03-08T08:05:56.602Z,3.17
2023-03-08T08:08:24.434Z,3.14
2023-03-08T08:10:52.183Z,3.11
2023-03-08T08:13:20.588Z,3.17
2023-03-08T08:15:48.620Z,3.24
2023-03-08T08:18:16.582Z,3.25
2023-03-08T08:20:44.488Z,3.21
2023-03-08T08:23:13.721Z,3.20
2023-03-08T08:25:41.553Z,3.22
2023-03-08T08:28:09.384Z,3.23
2023-03-08T08:30:37.350Z,3.28
2023-03-08T08:33:06.207Z,3.37
2023-03-08T08:35:42.714Z,3.37
2023-03-08T08:38:11.630Z,3.42
2023-03-08T08:40:40.842Z,3.44
2023-03-08T08:43:08.880Z,3.46
2023-03-08T08:45:37.192Z,3.54
2023-03-08T08:48:05.876Z,3.61
2023-03-08T08:50:33.818Z,3.64
2023-03-08T08:53:02.011Z,3.68
2023-03-08T08:55:30.023Z,3.72
2023-03-08T08:58:20.359Z,3.78
2023-03-08T09:00:48.280Z,3.83
2023-03-08T09:03:16.159Z,3.85
2023-03-08T09:05:45.727Z,3.83
2023-03-08T09:08:14.034Z,3.88
2023-03-08T09:10:42.112Z,3.87
2023-03-08T09:13:09.918Z,3.92
2023-03-08T09:15:39.129Z,3.99
2023-03-08T09:18:06.989Z,4.02
2023-03-08T09:20:34.824Z,4.05
2023-03-08T09:23:03.104Z,4.03
2023-03-08T09:25:31.073Z,4.08
2023-03-08T09:27:58.825Z,4.12
2023-03-08T09:30:26.637Z,4.19
2023-03-08T09:32:56.643Z,4.19
2023-03-08T09:35:24.769Z,4.16
2023-03-08T09:37:54.158Z,4.27
2023-03-08T09:40:27.246Z,4.38
2023-03-08T09:42:59.345Z,4.40
2023-03-08T09:45:28.489Z,4.47
2023-03-08T09:48:04.908Z,4.55
2023-03-08T09:50:45.343Z,4.64
2023-03-08T09:53:22.086Z,4.78
2023-03-08T09:55:53.986Z,4.83
2023-03-08T09:58:32.086Z,4.90
2023-03-08T10:01:04.340Z,4.97
2023-03-08T10:04:08.864Z,5.06
2023-03-08T10:06:43.260Z,5.11
2023-03-08T10:09:24.930Z,5.19
2023-03-08T10:11:58.596Z,5.18
2023-03-08T10:14:31.620Z,5.24
2023-03-08T10:17:04.655Z,5.26
2023-03-08T10:19:39.710Z,5.30
2023-03-08T10:22:17.666Z,5.31
2023-03-08T10:24:53.010Z,5.37
2023-03-08T10:27:23.614Z,5.39
2023-03-08T10:29:53.245Z,5.40
2023-03-08T10:32:22.119Z,5.48
2023-03-08T10:34:51.575Z,5.55
2023-03-08T10:37:21.741Z,5.65
2023-03-08T10:39:53.337Z,5.78
2023-03-08T10:42:23.629Z,6.00
2023-03-08T10:44:56.855Z,6.24
2023-03-08T10:47:26.521Z,6.41
2023-03-08T10:50:16.542Z,6.56
2023-03-08T10:52:45.362Z,6.68
2023-03-08T10:55:15.529Z,6.75
2023-03-08T10:57:49.799Z,6.86
2023-03-08T11:00:30.267Z,6.95
2023-03-08T11:03:13.545Z,7.06
2023-03-08T11:05:53.062Z,7.18
2023-03-08T11:08:23.377Z,7.31
2023-03-08T11:11:01.445Z,7.44
2023-03-08T11:13:32.985Z,7.54
2023-03-08T11:16:09.772Z,7.66
2023-03-08T11:18:50.141Z,7.75
2023-03-08T11:21:27.998Z,7.80
2023-03-08T11:24:06.062Z,7.84
2023-03-08T11:26:40.450Z,7.90
2023-03-08T11:29:19.028Z,7.97
2023-03-08T11:32:00.382Z,8.08
2023-03-08T11:34:47.000Z,8.18
2023-03-08T11:37:25.817Z,8.29
2023-03-08T11:40:02.709Z,8.44
2023-03-08T11:42:40.925Z,8.53
2023-03-08T11:45:21.164Z,8.56
2023-03-08T11:48:24.965Z,8.61
2023-03-08T11:50:58.803Z,8.66
2023-03-08T11:53:43.793Z,8.72
2023-03-08T11:56:27.786Z,8.80
2023-03-08T11:59:01.929Z,8.83
2023-03-08T12:01:37.022Z,8.89
2023-03-08T12:04:12.510Z,8.88
2023-03-08T12:06:43.788Z,8.92
2023-03-08T12:09:23.752Z,9.07
2023-03-08T12:11:57.995Z,9.19
2023-03-08T12:14:31.368Z,9.35
2023-03-08T12:17:06.466Z,9.46
2023-03-08T12:20:09.132Z,9.57
2023-03-08T12:22:47.025Z,9.61
2023-03-08T12:25:27.621Z,9.73
2023-03-08T12:28:00.628Z,9.73
2023-03-08T12:30:40.874Z,9.77
2023-03-08T12:33:13.766Z,9.82
2023-03-08T12:35:52.698Z,9.95
2023-03-08T12:38:32.504Z,10.04
2023-03-08T12:41:02.519Z,10.14
2023-03-08T12:43:32.345Z,10.16
2023-03-08T12:46:07.074Z,10.15
2023-03-08T12:48:37.675Z,10.18
2023-03-08T12:51:20.670Z,10.18
2023-03-08T12:53:59.677Z,10.14
2023-03-08T12:56:32.512Z,10.14
2023-03-08T12:59:02.703Z,10.20
2023-03-08T13:01:39.567Z,10.25
2023-03-08T13:04:39.192Z,10.35
2023-03-08T13:07:22.385Z,10.41
2023-03-08T13:09:59.351Z,10.39
2023-03-08T13:12:37.915Z,10.37
2023-03-08T13:15:26.669Z,10.35
2023-03-08T13:18:03.844Z,10.26
2023-03-08T13:20:50.987Z,10.22
2023-03-08T13:23:29.678Z,10.21
2023-03-08T13:26:31.337Z,10.22
2023-03-08T13:29:13.876Z,10.11
2023-03-08T13:31:42.270Z,10.13
2023-03-08T13:34:25.781Z,10.12
2023-03-08T13:36:53.746Z,10.09
2023-03-08T13:39:24.430Z,10.09
2023-03-08T13:41:52.602Z,10.08
2023-03-08T13:44:23.791Z,10.03
2023-03-08T13:46:53.914Z,10.05
2023-03-08T13:49:25.222Z,10.08
2023-03-08T13:51:55.688Z,10.14
2023-03-08T13:54:29.725Z,10.29
2023-03-08T13:56:58.672Z,10.34
2023-03-08T13:59:28.218Z,10.43
2023-03-08T14:01:56.423Z,10.47
2023-03-08T14:04:28.157Z,10.47
2023-03-08T14:06:57.821Z,10.46
2023-03-08T14:09:26.835Z,10.42
2023-03-08T14:11:58.756Z,10.39
2023-03-08T14:14:31.899Z,10.47
2023-03-08T14:17:00.252Z,10.49
2023-03-08T14:19:30.746Z,10.51
2023-03-08T14:22:00.745Z,10.55
2023-03-08T14:24:30.510Z,10.54
2023-03-08T14:27:01.453Z,10.54
2023-03-08T14:29:32.591Z,10.60
2023-03-08T14:32:04.670Z,10.66
2023-03-08T14:34:36.115Z,10.71
2023-03-08T14:37:07.522Z,10.80
2023-03-08T14:39:38.359Z,10.90
2023-03-08T14:42:12.206Z,10.95
2023-03-08T14:44:41.612Z,10.94
2023-03-08T14:47:11.665Z,10.92
2023-03-08T14:49:39.587Z,10.85
2023-03-08T14:52:20.773Z,10.76
2023-03-08T14:54:48.586Z,10.76
2023-03-08T14:57:19.423Z,10.79
2023-03-08T14:59:49.461Z,10.75
2023-03-08T15:02:18.678Z,10.69
2023-03-08T15:04:47.087Z,10.57
2023-03-08T15:07:19.245Z,10.49
2023-03-08T15:09:48.133Z,10.50
2023-03-08T15:12:16.013Z,10.39
2023-03-08T15:14:43.822Z,10.34
2023-03-08T15:17:13.037Z,10.30
2023-03-08T15:19:40.971Z,10.25
2023-03-08T15:22:08.829Z,10.23
2023-03-08T15:24:36.610Z,10.18
2023-03-08T15:27:04.741Z,10.13
2023-03-08T15:29:36.820Z,10.04
2023-03-08T15:32:04.675Z,10.04
2023-03-08T15:34:34.969Z,9.99
2023-03-08T15:37:02.790Z,10.02
2023-03-08T15:39:30.828Z,10.01
2023-03-08T15:41:58.703Z,9.97
2023-03-08T15:44:26.570Z,9.97
2023-03-08T15:46:54.860Z,9.94
2023-03-08T15:49:22.697Z,9.90
2023-03-08T15:51:51.945Z,9.91
2023-03-08T15:54:19.765Z,9.89
2023-03-08T15:56:47.574Z,9.88
2023-03-08T15:59:15.436Z,9.89
2023-03-08T16:01:43.314Z,9.87
2023-03-08T16:04:11.127Z,9.89
2023-03-08T16:06:38.934Z,9.87
2023-03-08T16:09:08.073Z,9.86
2023-03-08T16:11:35.900Z,9.84
2023-03-08T16:14:03.671Z,9.83
2023-03-08T16:16:44.503Z,9.79
2023-03-08T16:19:12.989Z,9.75
2023-03-08T16:21:40.833Z,9.72
2023-03-08T16:24:11.428Z,9.68
2023-03-08T16:26:39.293Z,9.65
2023-03-08T16:29:07.070Z,9.61
2023-03-08T16:31:35.724Z,9.60
2023-03-08T16:34:04.458Z,9.57
2023-03-08T16:36:32.303Z,9.54
2023-03-08T16:39:00.231Z,9.48
2023-03-08T16:41:30.045Z,9.45
2023-03-08T16:43:58.230Z,9.38
2023-03-08T16:46:26.230Z,9.34
2023-03-08T16:48:55.111Z,9.30
2023-03-08T16:51:28.090Z,9.29
2023-03-08T16:53:56.009Z,9.25
2023-03-08T16:56:25.858Z,9.21
2023-03-08T16:58:57.156Z,9.19
2023-03-08T17:01:26.487Z,9.18
2023-03-08T17:03:55.846Z,9.15
2023-03-08T17:06:27.317Z,9.14
2023-03-08T17:08:55.396Z,9.14
2023-03-08T17:11:25.504Z,9.14
2023-03-08T17:13:56.273Z,9.13
2023-03-08T17:16:26.894Z,9.14
2023-03-08T17:18:55.395Z,9.13
2023-03-08T17:21:24.060Z,9.14
2023-03-08T17:23:53.442Z,9.14
2023-03-08T17:26:22.973Z,9.14
2023-03-08T17:28:51.431Z,9.15
2023-03-08T17:31:23.051Z,9.13
2023-03-08T17:33:51.110Z,9.18
2023-03-08T17:36:19.937Z,9.18
2023-03-08T17:38:47.810Z,9.17
2023-03-08T17:41:17.080Z,9.15
2023-03-08T17:43:44.914Z,9.16
2023-03-08T17:46:14.531Z,9.13
2023-03-08T17:48:44.127Z,9.11
2023-03-08T17:51:14.386Z,9.11
2023-03-08T17:53:42.779Z,9.11
2023-03-08T17:56:13.255Z,9.10
2023-03-08T17:58:41.812Z,9.09
2023-03-08T18:01:11.945Z,9.10
2023-03-08T18:03:40.129Z,9.09
2023-03-08T18:06:26.350Z,9.09
2023-03-08T18:08:54.253Z,9.06
2023-03-08T18:11:22.458Z,9.07
2023-03-08T18:13:51.335Z,9.06
2023-03-08T18:16:19.821Z,9.04
2023-03-08T18:18:49.681Z,9.03
2023-03-08T18:21:20.041Z,9.03
2023-03-08T18:23:47.898Z,9.04
2023-03-08T18:26:19.462Z,9.04
2023-03-08T18:28:47.454Z,9.06
2023-03-08T18:31:17.749Z,9.02
2023-03-08T18:33:46.094Z,9.01
2023-03-08T18:36:14.019Z,9.00
2023-03-08T18:38:44.079Z,8.97
2023-03-08T18:41:13.677Z,8.97
2023-03-08T18:43:41.617Z,8.93
2023-03-08T18:46:12.035Z,8.93
2023-03-08T18:48:40.413Z,8.91
2023-03-08T18:51:08.675Z,8.91
2023-03-08T18:53:37.152Z,8.92
2023-03-08T18:56:07.158Z,8.93
2023-03-08T18:58:34.981Z,8.92
2023-03-08T19:01:03.039Z,8.94
2023-03-08T19:03:31.974Z,8.92
2023-03-08T19:06:02.889Z,8.92
2023-03-08T19:08:30.761Z,8.92
2023-03-08T19:10:58.729Z,8.92
2023-03-08T19:13:27.955Z,8.90
2023-03-08T19:15:56.144Z,8.87
2023-03-08T19:18:24.178Z,8.87
2023-03-08T19:20:52.108Z,8.85
2023-03-08T19:23:19.964Z,8.83
2023-03-08T19:26:12.211Z,8.81
2023-03-08T19:28:41.312Z,8.78
2023-03-08T19:31:17.509Z,8.73
2023-03-08T19:33:49.669Z,8.73
2023-03-08T19:36:17.517Z,8.72
2023-03-08T19:38:45.350Z,8.67
2023-03-08T19:41:14.005Z,8.66
2023-03-08T19:43:43.583Z,8.65
2023-03-08T19:46:11.521Z,8.62
2023-03-08T19:48:39.390Z,8.61
2023-03-08T19:51:07.261Z,8.62
2023-03-08T19:53:35.037Z,8.59
2023-03-08T19:56:02.894Z,8.59
2023-03-08T19:58:30.716Z,8.60
2023-03-08T20:01:05.337Z,8.62
2023-03-08T20:03:33.225Z,8.63
2023-03-08T20:06:01.808Z,8.63
2023-03-08T20:08:29.697Z,8.63
2023-03-08T20:10:57.696Z,8.67
2023-03-08T20:13:25.635Z,8.69
2023-03-08T20:15:53.458Z,8.72
2023-03-08T20:18:22.749Z,8.72
2023-03-08T20:20:51.365Z,8.76
2023-03-08T20:23:19.215Z,8.77
2023-03-08T20:25:47.042Z,8.78
2023-03-08T20:28:14.847Z,8.77
2023-03-08T20:30:42.728Z,8.77
2023-03-08T20:33:11.342Z,8.82
2023-03-08T20:35:41.144Z,8.81
2023-03-08T20:38:09.027Z,8.82
2023-03-08T20:40:39.317Z,8.84
2023-03-08T20:43:10.895Z,8.84
2023-03-08T20:45:40.212Z,8.84
2023-03-08T20:48:08.042Z,8.85
2023-03-08T20:50:35.932Z,8.86
2023-03-08T20:53:05.172Z,8.85
2023-03-08T20:55:33.022Z,8.86
2023-03-08T20:58:01.279Z,8.85
2023-03-08T21:00:29.098Z,8.90
2023-03-08T21:02:56.928Z,8.90
2023-03-08T21:05:25.216Z,8.91
2023-03-08T21:07:53.109Z,8.88
2023-03-08T21:10:22.444Z,8.90
2023-03-08T21:12:50.382Z,8.89
2023-03-08T21:15:18.335Z,8.90
2023-03-08T21:17:46.218Z,8.93
2023-03-08T21:20:14.102Z,8.96
2023-03-08T21:22:41.965Z,8.98
2023-03-08T21:25:10.901Z,8.96
2023-03-08T21:27:40.060Z,8.99
2023-03-08T21:30:09.223Z,9.00
2023-03-08T21:32:37.240Z,8.99
2023-03-08T21:35:05.749Z,8.99
2023-03-08T21:37:33.571Z,8.99
2023-03-08T21:40:01.373Z,8.99
2023-03-08T21:42:29.638Z,8.99
2023-03-08T21:44:58.812Z,8.98
2023-03-08T21:47:26.666Z,8.97
2023-03-08T21:49:54.493Z,8.94
2023-03-08T21:52:22.394Z,8.94
2023-03-08T21:54:50.245Z,8.93
2023-03-08T21:57:18.110Z,8.92
2023-03-08T21:59:46.372Z,8.91
2023-03-08T22:02:15.561Z,8.90
2023-03-08T22:04:43.403Z,8.89
2023-03-08T22:07:11.695Z,8.88
2023-03-08T22:09:39.527Z,8.87
2023-03-08T22:12:07.954Z,8.86
2023-03-08T22:14:35.877Z,8.86
2023-03-08T22:17:03.728Z,8.84
2023-03-08T22:19:32.953Z,8.80
2023-03-08T22:22:00.900Z,8.77
2023-03-08T22:24:28.834Z,8.77
2023-03-08T22:26:56.652Z,8.74
2023-03-08T22:29:24.453Z,8.72
2023-03-08T22:31:52.348Z,8.72
2023-03-08T22:34:20.174Z,8.72
2023-03-08T22:36:49.578Z,8.73
2023-03-08T22:39:17.385Z,8.72
2023-03-08T22:41:45.236Z,8.73
2023-03-08T22:44:14.340Z,8.74
2023-03-08T22:46:42.367Z,8.75
2023-03-08T22:49:11.665Z,8.77
2023-03-08T22:51:41.407Z,8.76
2023-03-08T22:54:16.182Z,8.73
2023-03-08T22:56:43.954Z,8.76
2023-03-08T22:59:11.806Z,8.77
2023-03-08T23:01:40.830Z,8.81
2023-03-08T23:04:11.301Z,8.79
2023-03-08T23:06:39.218Z,8.79
2023-03-08T23:09:11.369Z,8.78
2023-03-08T23:11:39.744Z,8.78
2023-03-08T23:14:08.612Z,8.76
2023-03-08T23:16:37.656Z,8.77
2023-03-08T23:19:05.875Z,8.78
2023-03-08T23:21:35.785Z,8.77
2023-03-08T23:24:03.634Z,8.77
2023-03-08T23:26:32.914Z,8.79
2023-03-08T23:29:03.305Z,8.75
2023-03-08T23:31:33.926Z,8.75
2023-03-08T23:34:02.831Z,8.76
2023-03-08T23:36:32.842Z,8.74
2023-03-08T23:39:03.081Z,8.70
2023-03-08T23:41:32.887Z,8.71
2023-03-08T23:44:02.402Z,8.70
2023-03-08T23:46:30.887Z,8.74
2023-03-08T23:49:01.434Z,8.72
2023-03-08T23:51:31.350Z,8.70
2023-03-08T23:54:01.610Z,8.72
2023-03-08T23:56:37.770Z,8.76
2023-03-08T23:59:08.255Z,8.75
